createdAt,value
2023-01-01T00:01:54.980Z,100373.81
2023-01-01T00:04:22.943Z,100383.78
2023-01-01T00:06:50.828Z,100398.72
2023-01-01T00:09:36.433Z,100373.03
2023-01-01T00:12:04.841Z,100372.81
2023-01-01T00:14:32.782Z,100398.50
2023-01-01T00:17:01.945Z,100414.22
2023-01-01T00:19:29.949Z,100404.34
2023-01-01T00:21:57.870Z,100406.00
2023-01-01T00:24:25.900Z,100388.34
2023-01-01T00:26:53.861Z,100394.53
2023-01-01T00:29:21.750Z,100414.53
2023-01-01T00:31:49.733Z,100415.63
2023-01-01T00:34:18.959Z,100407.19
2023-01-01T00:36:46.801Z,100400.13
2023-01-01T00:39:14.653Z,100385.28
2023-01-01T00:41:42.509Z,100400.41
2023-01-01T00:44:10.443Z,100406.53
2023-01-01T00:46:38.383Z,100405.59
2023-01-01T00:49:06.329Z,100400.31
2023-01-01T00:51:37.263Z,100399.53
2023-01-01T00:54:05.611Z,100414.47
2023-01-01T00:56:33.907Z,100396.56
2023-01-01T00:59:02.041Z,100411.44
2023-01-01T01:01:30.193Z,100411.28
2023-01-01T01:03:58.440Z,100423.97
2023-01-01T01:06:26.270Z,100429.25
2023-01-01T01:08:55.434Z,100434.84
2023-01-01T01:11:25.432Z,100439.94
2023-01-01T01:13:56.126Z,100435.69
2023-01-01T01:16:27.606Z,100445.34
2023-01-01T01:18:59.520Z,100448.06
2023-01-01T01:21:29.769Z,100474.75
2023-01-01T01:23:59.994Z,100438.00
2023-01-01T01:26:30.407Z,100475.88
2023-01-01T01:28:58.742Z,100452.03
2023-01-01T01:31:30.056Z,100454.69
2023-01-01T01:33:58.547Z,100465.53
2023-01-01T01:36:27.689Z,100450.38
2023-01-01T01:38:55.828Z,100460.06
2023-01-01T01:41:28.770Z,100460.06
2023-01-01T01:43:59.849Z,100451.69
2023-01-01T01:46:34.859Z,100451.41
2023-01-01T01:49:06.301Z,100460.53
2023-01-01T01:51:40.236Z,100458.50
2023-01-01T01:54:13.946Z,100473.47
2023-01-01T01:56:48.098Z,100487.41
2023-01-01T01:59:17.136Z,100484.28
2023-01-01T02:01:45.264Z,100469.03
2023-01-01T02:04:13.695Z,100487.59
2023-01-01T02:06:42.149Z,100497.97
2023-01-01T02:09:10.388Z,100502.41
2023-01-01T02:11:38.903Z,100489.66
2023-01-01T02:14:08.628Z,100501.06
2023-01-01T02:16:43.402Z,100500.00
2023-01-01T02:19:19.777Z,100518.00
2023-01-01T02:21:59.632Z,100507.56
2023-01-01T02:24:46.722Z,100497.38
2023-01-01T02:27:22.380Z,100485.81
2023-01-01T02:29:55.250Z,100480.88
2023-01-01T02:32:28.111Z,100479.31
2023-01-01T02:35:21.911Z,100487.09
2023-01-01T02:37:53.458Z,100468.75
2023-01-01T02:40:24.818Z,100479.28
2023-01-01T02:42:54.732Z,100485.31
2023-01-01T02:45:24.221Z,100489.28
2023-01-01T02:47:52.306Z,100496.72
2023-01-01T02:50:23.490Z,100509.63
2023-01-01T02:53:07.552Z,100508.84
2023-01-01T02:55:46.939Z,100506.69
2023-01-01T02:58:38.321Z,100513.88
2023-01-01T03:01:14.462Z,100524.06
2023-01-01T03:03:50.680Z,100519.03
2023-01-01T03:06:29.484Z,100527.97
2023-01-01T03:09:12.127Z,100526.03
2023-01-01T03:11:50.016Z,100533.81
2023-01-01T03:14:25.327Z,100540.41
2023-01-01T03:17:01.415Z,100545.84
2023-01-01T03:19:35.896Z,100554.66
2023-01-01T03:22:09.349Z,100544.03
2023-01-01T03:24:41.081Z,100544.72
2023-01-01T03:27:12.365Z,100564.78
2023-01-01T03:29:42.714Z,100567.09
2023-01-01T03:32:17.237Z,100571.56
2023-01-01T03:34:50.627Z,100566.88
2023-01-01T03:37:24.423Z,100571.03
2023-01-01T03:39:56.160Z,100540.47
2023-01-01T03:42:29.465Z,100554.53
2023-01-01T03:45:04.029Z,100589.06
2023-01-01T03:47:34.037Z,100553.84
2023-01-01T03:50:03.712Z,100546.72
2023-01-01T03:52:40.504Z,100545.56
2023-01-01T03:55:13.445Z,100584.75
2023-01-01T03:57:46.712Z,100541.31
2023-01-01T04:00:18.013Z,100555.56
2023-01-01T04:02:54.166Z,100557.63
2023-01-01T04:05:22.976Z,100565.97
2023-01-01T04:07:52.744Z,100558.13
2023-01-01T04:10:21.433Z,100577.72
2023-01-01T04:12:51.539Z,100556.22
2023-01-01T04:15:21.437Z,100566.09
2023-01-01T04:17:51.188Z,100557.69
2023-01-01T04:20:19.225Z,100563.88
2023-01-01T04:22:47.680Z,100570.66
2023-01-01T04:25:17.395Z,100578.94
2023-01-01T04:27:46.043Z,100592.34
2023-01-01T04:30:15.453Z,100581.94
2023-01-01T04:32:43.979Z,100598.97
2023-01-01T04:35:14.516Z,100584.59
2023-01-01T04:37:44.356Z,100576.16
2023-01-01T04:40:14.034Z,100553.06
2023-01-01T04:42:42.043Z,100590.34
2023-01-01T04:45:12.352Z,100580.84
2023-01-01T04:47:41.451Z,100580.28
2023-01-01T04:50:10.286Z,100594.97
2023-01-01T04:52:39.451Z,100586.91
2023-01-01T04:55:08.265Z,100591.56
2023-01-01T04:57:36.673Z,100601.22
2023-01-01T05:00:05.805Z,100605.53
2023-01-01T05:02:33.741Z,100596.97
2023-01-01T05:05:01.716Z,100625.91
2023-01-01T05:07:29.524Z,100602.69
2023-01-01T05:09:58.863Z,100607.81
2023-01-01T05:12:26.655Z,100628.78
2023-01-01T05:14:54.579Z,100623.53
2023-01-01T05:17:22.424Z,100618.44
2023-01-01T05:19:50.311Z,100615.16
2023-01-01T05:22:18.177Z,100622.59
2023-01-01T05:24:46.277Z,100644.91
2023-01-01T05:27:15.706Z,100642.78
2023-01-01T05:29:43.608Z,100630.16
2023-01-01T05:37:05.616Z,100642.25
2023-01-01T05:39:33.567Z,100633.06
2023-01-01T05:42:01.454Z,100650.59
2023-01-01T05:44:30.745Z,100661.50
2023-01-01T05:46:59.610Z,100663.94
2023-01-01T05:49:28.337Z,100659.63
2023-01-01T05:51:56.466Z,100662.47
2023-01-01T05:54:24.337Z,100665.22
2023-01-01T05:56:52.170Z,100665.47
2023-01-01T05:59:20.113Z,100662.16
2023-01-01T06:01:49.500Z,100659.81
2023-01-01T06:04:17.613Z,100688.41
2023-01-01T06:06:45.556Z,100669.03
2023-01-01T06:09:13.421Z,100677.00
2023-01-01T06:11:41.458Z,100710.19
2023-01-01T06:14:09.692Z,100682.53
2023-01-01T06:16:37.745Z,100695.16
2023-01-01T06:19:07.223Z,100686.84
2023-01-01T06:21:35.281Z,100713.06
2023-01-01T06:24:03.231Z,100700.78
2023-01-01T06:26:32.731Z,100739.56
2023-01-01T06:29:02.867Z,100732.88
2023-01-01T06:31:36.800Z,100736.97
2023-01-01T06:34:09.871Z,100741.41
2023-01-01T06:36:38.100Z,100756.22
2023-01-01T06:39:07.367Z,100766.31
2023-01-01T06:41:36.345Z,100769.34
2023-01-01T06:44:04.760Z,100778.53
2023-01-01T06:46:34.174Z,100802.44
2023-01-01T06:49:04.771Z,100798.53
2023-01-01T06:51:37.512Z,100805.50
2023-01-01T06:54:06.728Z,100803.63
2023-01-01T06:56:35.128Z,100812.34
2023-01-01T06:59:05.280Z,100802.13
2023-01-01T07:01:35.744Z,100804.16
2023-01-01T07:04:05.860Z,100814.38
2023-01-01T07:06:36.253Z,100820.69
2023-01-01T07:09:04.591Z,100828.72
2023-01-01T07:11:33.060Z,100836.19
2023-01-01T07:14:02.580Z,100834.69
2023-01-01T07:16:30.532Z,100835.16
2023-01-01T07:18:58.612Z,100843.53
2023-01-01T07:21:31.197Z,100862.13
2023-01-01T07:24:02.375Z,100861.41
2023-01-01T07:26:31.897Z,100847.28
2023-01-01T07:29:07.030Z,100845.06
2023-01-01T07:31:36.903Z,100883.56
2023-01-01T07:34:04.990Z,100881.19
2023-01-01T07:36:33.001Z,100872.69
2023-01-01T07:39:02.180Z,100903.28
2023-01-01T07:41:30.146Z,100895.66
2023-01-01T07:44:00.229Z,100898.53
2023-01-01T07:46:28.328Z,100914.38
2023-01-01T07:48:56.544Z,100915.75
2023-01-01T07:51:24.489Z,100922.56
2023-01-01T07:53:53.483Z,100926.66
2023-01-01T07:56:22.969Z,100940.13
2023-01-01T07:58:50.941Z,100957.88
2023-01-01T08:01:19.222Z,100945.59
2023-01-01T08:03:52.702Z,100952.06
2023-01-01T08:06:22.266Z,100960.38
2023-01-01T08:08:50.322Z,100995.81
2023-01-01T08:11:18.388Z,100984.53
2023-01-01T08:13:48.034Z,100987.78
2023-01-01T08:16:15.976Z,101002.47
2023-01-01T08:18:44.157Z,100988.50
2023-01-01T08:21:12.199Z,101020.88
2023-01-01T08:23:40.034Z,101024.59
2023-01-01T08:26:07.963Z,101019.50
2023-01-01T08:28:36.821Z,101023.66
2023-01-01T08:31:06.654Z,101037.38
2023-01-01T08:33:34.708Z,101040.78
2023-01-01T08:36:02.727Z,101030.25
2023-01-01T08:38:30.659Z,101034.63
2023-01-01T08:40:58.575Z,101056.25
2023-01-01T08:43:26.546Z,101039.28
2023-01-01T08:45:54.538Z,101058.72
2023-01-01T08:48:30.577Z,101054.25
2023-01-01T08:51:01.064Z,101066.53
2023-01-01T08:53:29.917Z,101093.94
2023-01-01T08:55:59.291Z,101064.03
2023-01-01T08:58:28.462Z,101070.59
2023-01-01T09:00:56.761Z,101072.88
2023-01-01T09:03:26.516Z,101063.28
2023-01-01T09:05:54.753Z,101052.69
2023-01-01T09:08:24.129Z,101068.88
2023-01-01T09:10:52.943Z,101075.66
2023-01-01T09:13:22.211Z,101098.34
2023-01-01T09:15:50.338Z,101108.50
2023-01-01T09:18:18.553Z,101090.09
2023-01-01T09:20:48.420Z,101082.09
2023-01-01T09:23:16.457Z,101087.63
2023-01-01T09:25:44.504Z,101117.75
2023-01-01T09:28:15.842Z,101112.19
2023-01-01T09:30:47.268Z,101104.84
2023-01-01T09:33:15.277Z,101136.75
2023-01-01T09:35:44.510Z,101127.88
2023-01-01T09:38:13.850Z,101113.69
2023-01-01T09:40:53.003Z,101125.97
2023-01-01T09:43:32.184Z,101119.88
2023-01-01T09:46:02.586Z,101126.72
2023-01-01T09:48:32.556Z,101121.47
2023-01-01T09:51:04.639Z,101122.78
2023-01-01T09:53:38.819Z,101113.03
2023-01-01T09:56:07.810Z,101139.31
2023-01-01T09:58:42.893Z,101105.63
2023-01-01T10:01:21.296Z,101126.91
2023-01-01T10:03:58.438Z,101124.78
2023-01-01T10:06:30.838Z,101136.66
2023-01-01T10:09:12.318Z,101130.59
2023-01-01T10:11:46.487Z,101128.44
2023-01-01T10:14:19.900Z,101147.75
2023-01-01T10:16:52.544Z,101139.28
2023-01-01T10:19:29.037Z,101132.25
2023-01-01T10:22:04.742Z,101138.16
2023-01-01T10:24:42.431Z,101138.28
2023-01-01T10:27:18.882Z,101139.19
2023-01-01T10:29:51.350Z,101150.13
2023-01-01T10:32:22.252Z,101156.47
2023-01-01T10:34:51.812Z,101134.75
2023-01-01T10:37:20.259Z,101139.09
2023-01-01T10:39:49.912Z,101160.72
2023-01-01T10:42:18.029Z,101166.44
2023-01-01T10:44:46.311Z,101148.94
2023-01-01T10:47:35.327Z,101167.19
2023-01-01T10:50:07.807Z,101170.94
2023-01-01T10:52:38.337Z,101160.91
2023-01-01T10:55:20.742Z,101147.75
2023-01-01T10:57:48.817Z,101158.44
2023-01-01T11:00:25.696Z,101155.38
2023-01-01T11:03:21.814Z,101162.59
2023-01-01T11:06:19.885Z,101147.47
2023-01-01T11:08:50.867Z,101164.50
2023-01-01T11:11:26.530Z,101159.19
2023-01-01T11:13:57.406Z,101164.50
2023-01-01T11:16:26.937Z,101162.03
2023-01-01T11:19:06.234Z,101164.38
2023-01-01T11:21:35.956Z,101162.75
2023-01-01T11:24:22.345Z,101181.84
2023-01-01T11:26:55.181Z,101196.69
2023-01-01T11:29:28.962Z,101202.69
2023-01-01T11:32:00.912Z,101211.66
2023-01-01T11:34:32.375Z,101211.66
2023-01-01T11:37:13.365Z,101206.50
2023-01-01T11:39:44.217Z,101213.66
2023-01-01T11:42:20.729Z,101231.88
2023-01-01T11:44:54.240Z,101221.78
2023-01-01T11:47:28.820Z,101235.28
2023-01-01T11:50:01.507Z,101210.41
2023-01-01T11:52:36.194Z,101213.81
2023-01-01T11:55:15.879Z,101211.75
2023-01-01T11:57:52.391Z,101204.09
2023-01-01T12:00:20.443Z,101207.81
2023-01-01T12:02:54.463Z,101192.31
2023-01-01T12:05:25.616Z,101192.38
2023-01-01T12:07:55.696Z,101208.53
2023-01-01T12:10:26.058Z,101202.69
2023-01-01T12:13:02.965Z,101212.59
2023-01-01T12:15:38.240Z,101210.41
2023-01-01T12:18:14.330Z,101222.56
2023-01-01T12:20:49.906Z,101220.59
2023-01-01T12:23:20.137Z,101215.59
2023-01-01T12:25:54.882Z,101220.72
2023-01-01T12:28:35.155Z,101219.66
2023-01-01T12:31:14.060Z,101228.03
2023-01-01T12:33:59.829Z,101221.38
2023-01-01T12:36:41.240Z,101217.13
2023-01-01T12:39:56.223Z,101218.75
2023-01-01T12:42:34.284Z,101227.69
2023-01-01T12:45:31.093Z,101242.22
2023-01-01T12:48:08.605Z,101227.06
2023-01-01T12:50:55.109Z,101228.50
2023-01-01T12:53:35.584Z,101243.09
2023-01-01T12:56:23.362Z,101231.50
2023-01-01T12:58:56.790Z,101240.75
2023-01-01T13:01:33.146Z,101253.19
2023-01-01T13:04:05.318Z,101253.34
2023-01-01T13:06:40.619Z,101240.06
2023-01-01T13:09:14.519Z,101238.88
2023-01-01T13:11:45.583Z,101242.22
2023-01-01T13:14:14.379Z,101238.03
2023-01-01T13:16:48.951Z,101245.34
2023-01-01T13:19:26.583Z,101229.75
2023-01-01T13:21:54.905Z,101237.16
2023-01-01T13:24:25.465Z,101240.75
2023-01-01T13:26:54.615Z,101252.66
2023-01-01T13:29:47.310Z,101242.81
2023-01-01T13:32:18.191Z,101237.19
2023-01-01T13:35:15.998Z,101243.94
2023-01-01T13:37:48.577Z,101244.47
2023-01-01T13:40:53.353Z,101250.13
2023-01-01T13:43:28.009Z,101238.69
2023-01-01T13:46:13.842Z,101253.72
2023-01-01T13:49:27.291Z,101247.59
2023-01-01T13:52:15.504Z,101248.75
2023-01-01T13:55:28.543Z,101258.44
2023-01-01T13:58:25.484Z,101260.13
2023-01-01T14:01:14.661Z,101265.91
2023-01-01T14:03:46.626Z,101267.88
2023-01-01T14:06:22.143Z,101258.78
2023-01-01T14:09:03.591Z,101269.91
2023-01-01T14:11:31.792Z,101269.50
2023-01-01T14:13:59.938Z,101267.06
2023-01-01T14:16:29.525Z,101282.63
2023-01-01T14:19:00.823Z,101291.81
2023-01-01T14:21:32.861Z,101305.00
2023-01-01T14:24:06.081Z,101308.16
2023-01-01T14:26:38.534Z,101297.59
2023-01-01T14:29:09.233Z,101296.53
2023-01-01T14:31:41.524Z,101298.41
2023-01-01T14:34:17.338Z,101308.13
2023-01-01T14:36:53.139Z,101307.78
2023-01-01T14:39:30.306Z,101307.38
2023-01-01T14:42:01.886Z,101303.53
2023-01-01T14:44:35.882Z,101310.38
2023-01-01T14:47:05.942Z,101301.94
2023-01-01T14:49:38.121Z,101302.63
2023-01-01T14:52:10.462Z,101308.97
2023-01-01T14:54:43.245Z,101303.94
2023-01-01T14:57:13.695Z,101321.28
2023-01-01T14:59:48.336Z,101317.47
2023-01-01T15:02:18.409Z,101321.97
2023-01-01T15:04:46.520Z,101313.78
2023-01-01T15:07:21.720Z,101326.00
2023-01-01T15:09:52.035Z,101330.88
2023-01-01T15:12:20.979Z,101333.66
2023-01-01T15:14:50.701Z,101333.72
2023-01-01T15:17:21.170Z,101333.13
2023-01-01T15:20:02.756Z,101336.34
2023-01-01T15:22:35.209Z,101335.47
2023-01-01T15:25:06.683Z,101334.13
2023-01-01T15:27:37.852Z,101348.53
2023-01-01T15:30:13.778Z,101344.53
2023-01-01T15:32:43.051Z,101338.53
2023-01-01T15:35:27.850Z,101342.72
2023-01-01T15:38:02.268Z,101349.13
2023-01-01T15:40:36.335Z,101335.44
2023-01-01T15:43:19.708Z,101337.69
2023-01-01T15:45:56.895Z,101334.69
2023-01-01T15:48:32.321Z,101341.59
2023-01-01T15:51:14.114Z,101335.81
2023-01-01T15:53:50.398Z,101340.84
2023-01-01T15:56:21.248Z,101337.91
2023-01-01T15:58:56.231Z,101332.13
2023-01-01T16:01:28.915Z,101321.63
2023-01-01T16:04:04.336Z,101322.91
2023-01-01T16:06:32.715Z,101329.50
2023-01-01T16:09:00.739Z,101338.59
2023-01-01T16:11:30.350Z,101339.28
2023-01-01T16:13:58.378Z,101349.03
2023-01-01T16:16:29.255Z,101352.44
2023-01-01T16:18:58.421Z,101353.34
2023-01-01T16:21:28.884Z,101361.00
2023-01-01T16:23:58.414Z,101347.03
2023-01-01T16:26:26.723Z,101346.84
2023-01-01T16:28:56.252Z,101351.06
2023-01-01T16:31:28.566Z,101346.88
2023-01-01T16:33:59.056Z,101353.03
2023-01-01T16:36:29.155Z,101345.34
2023-01-01T16:38:57.806Z,101346.19
2023-01-01T16:41:28.773Z,101350.47
2023-01-01T16:43:59.077Z,101349.81
2023-01-01T16:46:28.086Z,101341.59
2023-01-01T16:48:56.177Z,101337.88
2023-01-01T16:51:30.713Z,101331.16
2023-01-01T16:54:00.852Z,101341.09
2023-01-01T16:56:29.212Z,101331.81
2023-01-01T16:59:03.300Z,101329.75
2023-01-01T17:01:32.866Z,101332.47
2023-01-01T17:04:01.353Z,101329.63
2023-01-01T17:06:30.621Z,101319.91
2023-01-01T17:09:00.105Z,101321.53
2023-01-01T17:11:28.822Z,101315.63
2023-01-01T17:13:59.661Z,101314.59
2023-01-01T17:16:34.618Z,101318.00
2023-01-01T17:19:16.276Z,101311.16
2023-01-01T17:21:48.876Z,101313.66
2023-01-01T17:24:17.573Z,101322.69
2023-01-01T17:26:46.107Z,101310.28
2023-01-01T17:29:15.942Z,101324.53
2023-01-01T17:31:44.333Z,101313.28
2023-01-01T17:34:14.443Z,101316.16
2023-01-01T17:36:44.344Z,101310.03
2023-01-01T17:39:12.915Z,101308.69
2023-01-01T17:41:42.733Z,101314.28
2023-01-01T17:44:12.178Z,101309.59
2023-01-01T17:46:44.175Z,101309.16
2023-01-01T17:49:12.486Z,101309.34
2023-01-01T17:51:40.359Z,101309.56
2023-01-01T17:54:11.750Z,101318.88
2023-01-01T17:56:39.668Z,101315.47
2023-01-01T17:59:07.699Z,101308.19
2023-01-01T18:01:35.898Z,101305.97
2023-01-01T18:04:07.573Z,101297.94
2023-01-01T18:06:41.351Z,101302.84
2023-01-01T18:09:12.674Z,101297.59
2023-01-01T18:11:41.375Z,101305.47
2023-01-01T18:14:10.128Z,101301.41
2023-01-01T18:16:39.962Z,101295.59
2023-01-01T18:19:09.381Z,101281.81
2023-01-01T18:21:37.496Z,101297.66
2023-01-01T18:24:12.277Z,101300.31
2023-01-01T18:26:40.910Z,101291.13
2023-01-01T18:29:09.055Z,101289.75
2023-01-01T18:31:37.244Z,101292.84
2023-01-01T18:34:06.967Z,101286.69
2023-01-01T18:36:36.558Z,101291.41
2023-01-01T18:39:14.972Z,101283.69
2023-01-01T18:42:03.778Z,101285.09
2023-01-01T18:44:33.333Z,101273.44
2023-01-01T18:47:12.917Z,101274.16
2023-01-01T18:49:49.606Z,101269.44
2023-01-01T18:52:26.812Z,101267.72
2023-01-01T18:55:04.247Z,101260.50
2023-01-01T18:57:32.827Z,101265.56
2023-01-01T19:00:04.709Z,101268.22
2023-01-01T19:02:38.652Z,101266.16
2023-01-01T19:05:19.453Z,101258.47
2023-01-01T19:07:52.894Z,101247.34
2023-01-01T19:10:21.052Z,101252.78
2023-01-01T19:12:54.639Z,101251.84
2023-01-01T19:15:22.867Z,101257.25
2023-01-01T19:17:50.840Z,101248.59
2023-01-01T19:20:21.017Z,101235.25
2023-01-01T19:22:53.014Z,101227.28
2023-01-01T19:25:36.696Z,101217.19
2023-01-01T19:28:32.359Z,101212.78
2023-01-01T19:31:01.421Z,101218.75
2023-01-01T19:33:30.297Z,101216.31
2023-01-01T19:35:58.723Z,101214.13
2023-01-01T19:38:27.978Z,101220.50
2023-01-01T19:40:56.125Z,101215.00
2023-01-01T19:43:24.321Z,101219.63
2023-01-01T19:45:52.390Z,101222.03
2023-01-01T19:48:20.551Z,101218.16
2023-01-01T19:50:48.695Z,101221.06
2023-01-01T19:53:17.038Z,101223.75
2023-01-01T19:55:46.896Z,101222.97
2023-01-01T19:58:14.981Z,101225.38
2023-01-01T20:00:43.304Z,101216.56
2023-01-01T20:03:51.448Z,101210.72
2023-01-01T20:06:02.185Z,101217.31
2023-01-01T20:08:31.313Z,101218.63
2023-01-01T20:11:01.232Z,101218.44
2023-01-01T20:13:29.120Z,101217.00
2023-01-01T20:15:58.289Z,101218.22
2023-01-01T20:18:26.529Z,101222.09
2023-01-01T20:21:12.382Z,101215.00
2023-01-01T20:23:41.732Z,101222.88
2023-01-01T20:26:11.441Z,101229.47
2023-01-01T20:28:57.089Z,101235.03
2023-01-01T20:31:25.045Z,101225.97
2023-01-01T20:33:53.414Z,101227.03
2023-01-01T20:36:38.789Z,101227.44
2023-01-01T20:39:06.831Z,101234.75
2023-01-01T20:41:36.490Z,101233.69
2023-01-01T20:44:05.130Z,101230.03
2023-01-01T20:46:36.426Z,101231.31
2023-01-01T20:49:04.966Z,101240.81
2023-01-01T20:51:33.356Z,101241.63
2023-01-01T20:54:01.455Z,101246.25
2023-01-01T20:56:31.757Z,101237.75
2023-01-01T20:59:17.899Z,101226.56
2023-01-01T21:01:50.963Z,101226.84
2023-01-01T21:04:19.181Z,101223.22
2023-01-01T21:06:47.735Z,101222.16
2023-01-01T21:09:15.726Z,101212.44
2023-01-01T21:11:43.954Z,101216.78
2023-01-01T21:14:13.329Z,101215.00
2023-01-01T21:16:44.563Z,101216.69
2023-01-01T21:19:12.766Z,101212.22
2023-01-01T21:21:45.000Z,101216.50
2023-01-01T21:24:21.063Z,101204.69
2023-01-01T21:26:50.257Z,101203.59
2023-01-01T21:29:21.631Z,101198.75
2023-01-01T21:31:54.144Z,101189.50
2023-01-01T21:34:31.832Z,101186.69
2023-01-01T21:37:03.165Z,101181.91
2023-01-01T21:39:31.791Z,101186.47
2023-01-01T21:42:06.555Z,101177.25
2023-01-01T21:44:35.986Z,101170.63
2023-01-01T21:47:06.980Z,101171.28
2023-01-01T21:49:37.307Z,101173.28
2023-01-01T21:52:16.557Z,101175.03
2023-01-01T21:54:48.120Z,101168.56
2023-01-01T21:57:18.832Z,101176.03
2023-01-01T21:59:48.349Z,101165.56
2023-01-01T22:02:33.038Z,101163.38
2023-01-01T22:05:03.167Z,101160.13
2023-01-01T22:10:25.127Z,101144.28
2023-01-01T22:12:57.292Z,101139.69
2023-01-01T22:15:41.303Z,101127.47
2023-01-01T22:18:30.992Z,101129.50
2023-01-01T22:21:02.697Z,101120.09
2023-01-01T22:23:38.385Z,101110.03
2023-01-01T22:26:15.838Z,101104.25
2023-01-01T22:28:46.023Z,101098.22
2023-01-01T22:31:20.361Z,101101.34
2023-01-01T22:33:49.520Z,101102.72
2023-01-01T22:36:21.830Z,101103.38
2023-01-01T22:38:49.772Z,101094.69
2023-01-01T22:41:17.623Z,101085.63
2023-01-01T22:43:48.176Z,101075.06
2023-01-01T22:46:27.280Z,101078.97
2023-01-01T22:48:58.159Z,101074.06
2023-01-01T22:51:29.624Z,101072.47
2023-01-01T22:53:57.571Z,101058.16
2023-01-01T22:56:25.904Z,101055.09
2023-01-01T22:58:57.261Z,101058.50
2023-01-01T23:01:27.144Z,101047.28
2023-01-01T23:03:55.133Z,101039.78
2023-01-01T23:06:23.362Z,101037.94
2023-01-01T23:08:52.319Z,101038.59
2023-01-01T23:11:20.870Z,101026.84
2023-01-01T23:14:08.615Z,101029.91
2023-01-01T23:16:37.891Z,101019.16
2023-01-01T23:19:06.457Z,101018.13
2023-01-01T23:21:36.592Z,101006.41
2023-01-01T23:24:07.965Z,100996.84
2023-01-01T23:26:35.887Z,101008.25
2023-01-01T23:29:04.556Z,101004.00
2023-01-01T23:31:34.659Z,100996.13
2023-01-01T23:34:04.157Z,100985.91
2023-01-01T23:36:32.687Z,100987.44
2023-01-01T23:39:00.552Z,100984.34
2023-01-01T23:41:28.524Z,100980.75
2023-01-01T23:43:56.398Z,100974.94
2023-01-01T23:46:24.480Z,100964.38
2023-01-01T23:48:54.298Z,100961.63
2023-01-01T23:51:23.710Z,100966.91
2023-01-01T23:53:51.559Z,100964.38
2023-01-01T23:56:19.572Z,100958.91
2023-01-01T23:58:47.418Z,100957.88
